sensor_id;sensor_type;location;lat;lon;timestamp;P1;durP1;ratioP1;P2;durP2;ratioP2
71464;SDS011;59274;49.874;9.154;2023-01-13T00:01:10;1.48;;;0.60;;
71464;SDS011;59274;49.874;9.154;2023-01-13T00:03:36;3.17;;;0.82;;
71464;SDS011;59274;49.874;9.154;2023-01-13T00:06:02;2.07;;;0.50;;
71464;SDS011;59274;49.874;9.154;2023-01-13T00:08:28;3.13;;;1.10;;
71464;SDS011;59274;49.874;9.154;2023-01-13T00:10:54;4.47;;;0.80;;
71464;SDS011;59274;49.874;9.154;2023-01-13T00:13:19;4.63;;;0.77;;
71464;SDS011;59274;49.874;9.154;2023-01-13T00:18:22;2.03;;;0.70;;
71464;SDS011;59274;49.874;9.154;2023-01-13T00:20:49;3.28;;;0.90;;
71464;SDS011;59274;49.874;9.154;2023-01-13T00:23:29;1.80;;;0.60;;
71464;SDS011;59274;49.874;9.154;2023-01-13T00:26:00;3.05;;;0.80;;
71464;SDS011;59274;49.874;9.154;2023-01-13T00:28:27;2.35;;;0.95;;
71464;SDS011;59274;49.874;9.154;2023-01-13T00:30:53;3.42;;;1.00;;
71464;SDS011;59274;49.874;9.154;2023-01-13T00:33:22;2.47;;;0.70;;
71464;SDS011;59274;49.874;9.154;2023-01-13T00:35:55;2.43;;;0.70;;
71464;SDS011;59274;49.874;9.154;2023-01-13T00:38:21;1.00;;;0.40;;
71464;SDS011;59274;49.874;9.154;2023-01-13T00:40:54;2.90;;;0.80;;
71464;SDS011;59274;49.874;9.154;2023-01-13T00:43:28;1.88;;;0.65;;
71464;SDS011;59274;49.874;9.154;2023-01-13T00:45:56;2.70;;;0.80;;
71464;SDS011;59274;49.874;9.154;2023-01-13T00:48:23;2.00;;;0.70;;
71464;SDS011;59274;49.874;9.154;2023-01-13T00:51:11;2.78;;;0.70;;
71464;SDS011;59274;49.874;9.154;2023-01-13T00:53:39;2.13;;;0.80;;
71464;SDS011;59274;49.874;9.154;2023-01-13T00:56:12;3.67;;;0.63;;
71464;SDS011;59274;49.874;9.154;2023-01-13T00:58:38;3.30;;;0.80;;
71464;SDS011;59274;49.874;9.154;2023-01-13T01:01:08;1.30;;;0.50;;
71464;SDS011;59274;49.874;9.154;2023-01-13T01:03:35;2.83;;;0.75;;
71464;SDS011;59274;49.874;9.154;2023-01-13T01:06:08;2.80;;;0.60;;
71464;SDS011;59274;49.874;9.154;2023-01-13T01:08:37;2.92;;;0.95;;
71464;SDS011;59274;49.874;9.154;2023-01-13T01:11:03;2.75;;;0.80;;
71464;SDS011;59274;49.874;9.154;2023-01-13T01:13:30;2.23;;;0.70;;
71464;SDS011;59274;49.874;9.154;2023-01-13T01:15:56;2.35;;;0.60;;
71464;SDS011;59274;49.874;9.154;2023-01-13T01:18:21;0.98;;;0.55;;
71464;SDS011;59274;49.874;9.154;2023-01-13T01:20:47;3.13;;;0.90;;
71464;SDS011;59274;49.874;9.154;2023-01-13T01:23:12;3.07;;;0.70;;
71464;SDS011;59274;49.874;9.154;2023-01-13T01:25:38;4.18;;;0.80;;
71464;SDS011;59274;49.874;9.154;2023-01-13T01:28:03;3.33;;;0.80;;
71464;SDS011;59274;49.874;9.154;2023-01-13T01:30:29;3.73;;;0.70;;
71464;SDS011;59274;49.874;9.154;2023-01-13T01:32:54;5.67;;;1.10;;
71464;SDS011;59274;49.874;9.154;2023-01-13T01:35:21;3.40;;;0.80;;
71464;SDS011;59274;49.874;9.154;2023-01-13T01:37:47;1.35;;;0.52;;
71464;SDS011;59274;49.874;9.154;2023-01-13T01:40:13;2.70;;;0.57;;
71464;SDS011;59274;49.874;9.154;2023-01-13T01:42:38;3.80;;;0.70;;
71464;SDS011;59274;49.874;9.154;2023-01-13T01:45:22;1.60;;;0.60;;
71464;SDS011;59274;49.874;9.154;2023-01-13T01:47:52;1.92;;;0.75;;
71464;SDS011;59274;49.874;9.154;2023-01-13T01:50:22;3.55;;;0.70;;
71464;SDS011;59274;49.874;9.154;2023-01-13T01:52:50;2.17;;;0.70;;
71464;SDS011;59274;49.874;9.154;2023-01-13T01:55:23;2.72;;;0.57;;
71464;SDS011;59274;49.874;9.154;2023-01-13T01:57:54;3.23;;;0.53;;
71464;SDS011;59274;49.874;9.154;2023-01-13T02:00:36;2.60;;;0.50;;
71464;SDS011;59274;49.874;9.154;2023-01-13T02:03:02;1.25;;;0.60;;
71464;SDS011;59274;49.874;9.154;2023-01-13T02:05:30;3.85;;;0.80;;
71464;SDS011;59274;49.874;9.154;2023-01-13T02:07:56;3.43;;;0.77;;
71464;SDS011;59274;49.874;9.154;2023-01-13T02:10:24;1.75;;;0.65;;
71464;SDS011;59274;49.874;9.154;2023-01-13T02:12:52;3.80;;;0.50;;
71464;SDS011;59274;49.874;9.154;2023-01-13T02:15:21;1.17;;;0.70;;
71464;SDS011;59274;49.874;9.154;2023-01-13T02:17:59;2.30;;;0.70;;
71464;SDS011;59274;49.874;9.154;2023-01-13T02:35:23;2.67;;;0.70;;
71464;SDS011;59274;49.874;9.154;2023-01-13T02:37:57;3.28;;;0.50;;
71464;SDS011;59274;49.874;9.154;2023-01-13T02:40:30;2.97;;;0.60;;
71464;SDS011;59274;49.874;9.154;2023-01-13T02:43:09;1.35;;;0.60;;
71464;SDS011;59274;49.874;9.154;2023-01-13T02:46:10;4.38;;;0.80;;
71464;SDS011;59274;49.874;9.154;2023-01-13T02:48:40;0.95;;;0.57;;
71464;SDS011;59274;49.874;9.154;2023-01-13T02:51:12;3.28;;;1.00;;
71464;SDS011;59274;49.874;9.154;2023-01-13T02:53:47;3.40;;;0.60;;
71464;SDS011;59274;49.874;9.154;2023-01-13T02:56:17;1.73;;;0.60;;
71464;SDS011;59274;49.874;9.154;2023-01-13T02:58:45;2.03;;;0.70;;
71464;SDS011;59274;49.874;9.154;2023-01-13T03:01:12;1.27;;;0.60;;
71464;SDS011;59274;49.874;9.154;2023-01-13T03:03:38;2.10;;;0.67;;
71464;SDS011;59274;49.874;9.154;2023-01-13T03:12:01;4.20;;;0.57;;
71464;SDS011;59274;49.874;9.154;2023-01-13T03:14:54;2.08;;;0.50;;
71464;SDS011;59274;49.874;9.154;2023-01-13T03:22:43;0.80;;;0.50;;
71464;SDS011;59274;49.874;9.154;2023-01-13T03:25:26;1.67;;;0.60;;
71464;SDS011;59274;49.874;9.154;2023-01-13T03:28:00;3.22;;;0.50;;
71464;SDS011;59274;49.874;9.154;2023-01-13T03:33:11;1.00;;;0.70;;
71464;SDS011;59274;49.874;9.154;2023-01-13T03:35:43;1.27;;;0.60;;
71464;SDS011;59274;49.874;9.154;2023-01-13T03:38:13;2.75;;;0.70;;
71464;SDS011;59274;49.874;9.154;2023-01-13T03:40:50;1.67;;;0.50;;
71464;SDS011;59274;49.874;9.154;2023-01-13T03:43:28;1.40;;;0.50;;
71464;SDS011;59274;49.874;9.154;2023-01-13T03:46:22;1.60;;;0.60;;
71464;SDS011;59274;49.874;9.154;2023-01-13T03:48:55;2.30;;;0.80;;
71464;SDS011;59274;49.874;9.154;2023-01-13T03:51:23;1.08;;;0.70;;
71464;SDS011;59274;49.874;9.154;2023-01-13T03:53:58;1.27;;;0.50;;
71464;SDS011;59274;49.874;9.154;2023-01-13T03:56:46;1.02;;;0.52;;
71464;SDS011;59274;49.874;9.154;2023-01-13T03:59:19;1.33;;;0.52;;
71464;SDS011;59274;49.874;9.154;2023-01-13T04:02:06;2.77;;;0.50;;
71464;SDS011;59274;49.874;9.154;2023-01-13T04:04:39;3.17;;;0.57;;
71464;SDS011;59274;49.874;9.154;2023-01-13T04:07:44;3.75;;;0.70;;
71464;SDS011;59274;49.874;9.154;2023-01-13T04:10:08;1.60;;;0.52;;
71464;SDS011;59274;49.874;9.154;2023-01-13T04:12:37;0.95;;;0.52;;
71464;SDS011;59274;49.874;9.154;2023-01-13T04:15:36;0.70;;;0.30;;
71464;SDS011;59274;49.874;9.154;2023-01-13T04:20:40;0.75;;;0.45;;
71464;SDS011;59274;49.874;9.154;2023-01-13T04:23:07;2.05;;;0.60;;
71464;SDS011;59274;49.874;9.154;2023-01-13T04:25:33;2.25;;;0.50;;
71464;SDS011;59274;49.874;9.154;2023-01-13T04:27:59;1.23;;;0.50;;
71464;SDS011;59274;49.874;9.154;2023-01-13T04:30:25;3.67;;;0.68;;
71464;SDS011;59274;49.874;9.154;2023-01-13T04:32:50;1.80;;;0.47;;
71464;SDS011;59274;49.874;9.154;2023-01-13T04:35:16;1.27;;;0.50;;
71464;SDS011;59274;49.874;9.154;2023-01-13T04:37:41;2.67;;;0.50;;
71464;SDS011;59274;49.874;9.154;2023-01-13T04:40:07;1.30;;;0.60;;
71464;SDS011;59274;49.874;9.154;2023-01-13T04:42:33;1.00;;;0.50;;
71464;SDS011;59274;49.874;9.154;2023-01-13T04:44:58;2.53;;;0.85;;
71464;SDS011;59274;49.874;9.154;2023-01-13T04:47:23;1.03;;;0.40;;
71464;SDS011;59274;49.874;9.154;2023-01-13T04:49:49;0.60;;;0.40;;
71464;SDS011;59274;49.874;9.154;2023-01-13T04:52:14;1.60;;;0.57;;
71464;SDS011;59274;49.874;9.154;2023-01-13T04:54:40;0.77;;;0.50;;
71464;SDS011;59274;49.874;9.154;2023-01-13T04:57:05;3.40;;;0.63;;
71464;SDS011;59274;49.874;9.154;2023-01-13T04:59:30;1.60;;;0.60;;
71464;SDS011;59274;49.874;9.154;2023-01-13T05:01:56;3.20;;;0.40;;
71464;SDS011;59274;49.874;9.154;2023-01-13T05:04:21;3.30;;;0.60;;
71464;SDS011;59274;49.874;9.154;2023-01-13T05:06:46;1.10;;;0.50;;
71464;SDS011;59274;49.874;9.154;2023-01-13T05:09:12;2.50;;;0.80;;
71464;SDS011;59274;49.874;9.154;2023-01-13T05:11:39;2.33;;;0.50;;
71464;SDS011;59274;49.874;9.154;2023-01-13T05:14:23;2.22;;;0.50;;
71464;SDS011;59274;49.874;9.154;2023-01-13T05:17:08;0.88;;;0.50;;
71464;SDS011;59274;49.874;9.154;2023-01-13T05:19:42;1.55;;;0.52;;
71464;SDS011;59274;49.874;9.154;2023-01-13T05:22:08;0.90;;;0.60;;
71464;SDS011;59274;49.874;9.154;2023-01-13T05:24:52;1.85;;;0.70;;
71464;SDS011;59274;49.874;9.154;2023-01-13T05:27:36;2.03;;;0.60;;
71464;SDS011;59274;49.874;9.154;2023-01-13T05:30:01;1.38;;;0.70;;
71464;SDS011;59274;49.874;9.154;2023-01-13T05:32:27;2.75;;;0.70;;
71464;SDS011;59274;49.874;9.154;2023-01-13T05:34:53;2.03;;;0.50;;
71464;SDS011;59274;49.874;9.154;2023-01-13T05:37:20;2.67;;;0.60;;
71464;SDS011;59274;49.874;9.154;2023-01-13T05:39:46;1.55;;;0.70;;
71464;SDS011;59274;49.874;9.154;2023-01-13T05:42:30;0.87;;;0.53;;
71464;SDS011;59274;49.874;9.154;2023-01-13T05:45:14;1.55;;;0.40;;
71464;SDS011;59274;49.874;9.154;2023-01-13T05:47:40;1.02;;;0.52;;
71464;SDS011;59274;49.874;9.154;2023-01-13T05:50:05;2.77;;;0.57;;
71464;SDS011;59274;49.874;9.154;2023-01-13T05:52:31;1.67;;;0.70;;
71464;SDS011;59274;49.874;9.154;2023-01-13T05:54:57;0.83;;;0.40;;
71464;SDS011;59274;49.874;9.154;2023-01-13T05:57:22;2.20;;;0.63;;
71464;SDS011;59274;49.874;9.154;2023-01-13T05:59:47;2.80;;;0.70;;
71464;SDS011;59274;49.874;9.154;2023-01-13T06:02:13;1.77;;;0.53;;
71464;SDS011;59274;49.874;9.154;2023-01-13T06:04:38;3.60;;;0.80;;
71464;SDS011;59274;49.874;9.154;2023-01-13T06:07:04;0.80;;;0.50;;
71464;SDS011;59274;49.874;9.154;2023-01-13T06:09:29;1.50;;;0.50;;
71464;SDS011;59274;49.874;9.154;2023-01-13T06:11:55;2.55;;;0.77;;
71464;SDS011;59274;49.874;9.154;2023-01-13T06:14:20;0.77;;;0.50;;
71464;SDS011;59274;49.874;9.154;2023-01-13T06:16:46;0.97;;;0.50;;
71464;SDS011;59274;49.874;9.154;2023-01-13T06:19:11;2.30;;;0.60;;
71464;SDS011;59274;49.874;9.154;2023-01-13T06:21:40;2.28;;;0.80;;
71464;SDS011;59274;49.874;9.154;2023-01-13T06:24:08;1.73;;;0.60;;
71464;SDS011;59274;49.874;9.154;2023-01-13T06:26:38;2.72;;;0.63;;
71464;SDS011;59274;49.874;9.154;2023-01-13T06:29:04;2.25;;;0.65;;
71464;SDS011;59274;49.874;9.154;2023-01-13T06:31:30;1.90;;;0.68;;
71464;SDS011;59274;49.874;9.154;2023-01-13T06:34:01;1.43;;;0.57;;
71464;SDS011;59274;49.874;9.154;2023-01-13T06:36:35;1.90;;;0.52;;
71464;SDS011;59274;49.874;9.154;2023-01-13T06:39:06;4.32;;;0.88;;
71464;SDS011;59274;49.874;9.154;2023-01-13T06:41:34;2.50;;;0.68;;
71464;SDS011;59274;49.874;9.154;2023-01-13T06:44:19;2.20;;;0.85;;
71464;SDS011;59274;49.874;9.154;2023-01-13T06:46:46;2.73;;;0.70;;
71464;SDS011;59274;49.874;9.154;2023-01-13T06:49:12;3.60;;;0.60;;
71464;SDS011;59274;49.874;9.154;2023-01-13T06:51:37;1.77;;;0.60;;
71464;SDS011;59274;49.874;9.154;2023-01-13T06:54:03;1.53;;;0.43;;
71464;SDS011;59274;49.874;9.154;2023-01-13T06:56:28;1.65;;;0.60;;
71464;SDS011;59274;49.874;9.154;2023-01-13T06:58:54;1.80;;;0.70;;
71464;SDS011;59274;49.874;9.154;2023-01-13T07:01:19;4.93;;;1.40;;
71464;SDS011;59274;49.874;9.154;2023-01-13T07:03:44;1.73;;;0.60;;
71464;SDS011;59274;49.874;9.154;2023-01-13T07:06:10;1.52;;;0.60;;
71464;SDS011;59274;49.874;9.154;2023-01-13T07:08:35;2.00;;;0.70;;
71464;SDS011;59274;49.874;9.154;2023-01-13T07:11:01;2.53;;;0.77;;
71464;SDS011;59274;49.874;9.154;2023-01-13T07:13:27;1.57;;;0.60;;
71464;SDS011;59274;49.874;9.154;2023-01-13T07:16:11;2.65;;;0.85;;
71464;SDS011;59274;49.874;9.154;2023-01-13T07:18:37;2.65;;;0.55;;
71464;SDS011;59274;49.874;9.154;2023-01-13T07:21:05;1.50;;;0.60;;
71464;SDS011;59274;49.874;9.154;2023-01-13T07:23:35;1.42;;;0.50;;
71464;SDS011;59274;49.874;9.154;2023-01-13T07:26:02;2.90;;;1.00;;
71464;SDS011;59274;49.874;9.154;2023-01-13T07:28:28;0.90;;;0.60;;
71464;SDS011;59274;49.874;9.154;2023-01-13T07:30:55;2.30;;;0.70;;
71464;SDS011;59274;49.874;9.154;2023-01-13T07:33:21;1.48;;;0.40;;
71464;SDS011;59274;49.874;9.154;2023-01-13T07:35:47;0.85;;;0.50;;
71464;SDS011;59274;49.874;9.154;2023-01-13T07:38:13;2.45;;;0.43;;
71464;SDS011;59274;49.874;9.154;2023-01-13T07:40:39;2.27;;;0.47;;
71464;SDS011;59274;49.874;9.154;2023-01-13T07:43:05;0.40;;;0.30;;
71464;SDS011;59274;49.874;9.154;2023-01-13T07:45:53;1.42;;;0.50;;
71464;SDS011;59274;49.874;9.154;2023-01-13T07:48:20;0.50;;;0.30;;
71464;SDS011;59274;49.874;9.154;2023-01-13T07:50:45;0.47;;;0.28;;
71464;SDS011;59274;49.874;9.154;2023-01-13T07:53:10;0.70;;;0.40;;
71464;SDS011;59274;49.874;9.154;2023-01-13T07:55:39;2.90;;;0.40;;
71464;SDS011;59274;49.874;9.154;2023-01-13T07:58:06;1.17;;;0.30;;
71464;SDS011;59274;49.874;9.154;2023-01-13T08:00:33;1.00;;;0.30;;
71464;SDS011;59274;49.874;9.154;2023-01-13T08:02:59;1.27;;;0.50;;
71464;SDS011;59274;49.874;9.154;2023-01-13T08:05:24;1.10;;;0.40;;
71464;SDS011;59274;49.874;9.154;2023-01-13T08:07:50;0.60;;;0.30;;
71464;SDS011;59274;49.874;9.154;2023-01-13T08:10:15;4.40;;;1.37;;
71464;SDS011;59274;49.874;9.154;2023-01-13T08:12:41;2.53;;;0.73;;
71464;SDS011;59274;49.874;9.154;2023-01-13T08:15:25;4.50;;;0.95;;
71464;SDS011;59274;49.874;9.154;2023-01-13T08:17:50;2.50;;;0.60;;
71464;SDS011;59274;49.874;9.154;2023-01-13T08:20:15;2.80;;;0.70;;
71464;SDS011;59274;49.874;9.154;2023-01-13T08:22:41;2.78;;;0.50;;
71464;SDS011;59274;49.874;9.154;2023-01-13T08:25:06;1.10;;;0.50;;
71464;SDS011;59274;49.874;9.154;2023-01-13T08:27:32;0.83;;;0.50;;
71464;SDS011;59274;49.874;9.154;2023-01-13T08:29:58;2.80;;;0.82;;
71464;SDS011;59274;49.874;9.154;2023-01-13T08:32:23;1.93;;;0.80;;
71464;SDS011;59274;49.874;9.154;2023-01-13T08:34:49;4.40;;;1.10;;
71464;SDS011;59274;49.874;9.154;2023-01-13T08:37:14;4.13;;;0.90;;
71464;SDS011;59274;49.874;9.154;2023-01-13T08:39:40;3.23;;;0.63;;
71464;SDS011;59274;49.874;9.154;2023-01-13T08:42:05;2.70;;;0.80;;
71464;SDS011;59274;49.874;9.154;2023-01-13T08:44:31;5.27;;;0.90;;
71464;SDS011;59274;49.874;9.154;2023-01-13T08:46:56;2.83;;;0.90;;
71464;SDS011;59274;49.874;9.154;2023-01-13T08:49:22;4.32;;;1.02;;
71464;SDS011;59274;49.874;9.154;2023-01-13T08:51:48;6.47;;;1.17;;
71464;SDS011;59274;49.874;9.154;2023-01-13T08:54:15;4.30;;;1.20;;
71464;SDS011;59274;49.874;9.154;2023-01-13T08:56:41;4.28;;;1.17;;
71464;SDS011;59274;49.874;9.154;2023-01-13T08:59:11;2.33;;;0.80;;
71464;SDS011;59274;49.874;9.154;2023-01-13T09:01:40;2.22;;;0.80;;
71464;SDS011;59274;49.874;9.154;2023-01-13T09:04:07;2.53;;;0.53;;
71464;SDS011;59274;49.874;9.154;2023-01-13T09:06:39;2.35;;;0.70;;
71464;SDS011;59274;49.874;9.154;2023-01-13T09:09:04;2.73;;;0.90;;
71464;SDS011;59274;49.874;9.154;2023-01-13T09:11:31;1.97;;;0.40;;
71464;SDS011;59274;49.874;9.154;2023-01-13T09:14:20;2.70;;;0.57;;
71464;SDS011;59274;49.874;9.154;2023-01-13T09:16:47;2.80;;;0.70;;
71464;SDS011;59274;49.874;9.154;2023-01-13T09:19:15;2.55;;;0.70;;
71464;SDS011;59274;49.874;9.154;2023-01-13T09:21:40;4.10;;;0.67;;
71464;SDS011;59274;49.874;9.154;2023-01-13T09:24:06;3.30;;;0.80;;
71464;SDS011;59274;49.874;9.154;2023-01-13T09:26:32;3.85;;;0.70;;
71464;SDS011;59274;49.874;9.154;2023-01-13T09:28:57;2.70;;;0.70;;
71464;SDS011;59274;49.874;9.154;2023-01-13T09:31:23;1.37;;;0.60;;
71464;SDS011;59274;49.874;9.154;2023-01-13T09:33:48;1.15;;;0.50;;
71464;SDS011;59274;49.874;9.154;2023-01-13T09:36:32;2.10;;;0.50;;
71464;SDS011;59274;49.874;9.154;2023-01-13T09:38:57;3.10;;;0.80;;
71464;SDS011;59274;49.874;9.154;2023-01-13T09:41:23;3.30;;;0.53;;
71464;SDS011;59274;49.874;9.154;2023-01-13T09:44:20;1.77;;;0.50;;
71464;SDS011;59274;49.874;9.154;2023-01-13T09:46:52;1.97;;;0.57;;
71464;SDS011;59274;49.874;9.154;2023-01-13T09:57:16;6.00;;;0.75;;
71464;SDS011;59274;49.874;9.154;2023-01-13T09:59:43;1.47;;;0.60;;
71464;SDS011;59274;49.874;9.154;2023-01-13T10:05:00;4.30;;;0.70;;
71464;SDS011;59274;49.874;9.154;2023-01-13T10:07:26;1.90;;;0.70;;
71464;SDS011;59274;49.874;9.154;2023-01-13T10:09:55;2.23;;;0.73;;
71464;SDS011;59274;49.874;9.154;2023-01-13T10:12:24;3.10;;;0.80;;
71464;SDS011;59274;49.874;9.154;2023-01-13T10:15:18;4.03;;;0.88;;
71464;SDS011;59274;49.874;9.154;2023-01-13T10:18:04;7.07;;;1.65;;
71464;SDS011;59274;49.874;9.154;2023-01-13T10:20:53;1.60;;;0.57;;
71464;SDS011;59274;49.874;9.154;2023-01-13T10:23:49;2.70;;;0.90;;
71464;SDS011;59274;49.874;9.154;2023-01-13T10:26:28;5.88;;;1.00;;
71464;SDS011;59274;49.874;9.154;2023-01-13T10:28:55;3.83;;;0.70;;
71464;SDS011;59274;49.874;9.154;2023-01-13T10:31:22;7.47;;;0.95;;
71464;SDS011;59274;49.874;9.154;2023-01-13T10:33:56;2.63;;;0.60;;
71464;SDS011;59274;49.874;9.154;2023-01-13T10:36:30;3.60;;;0.57;;
71464;SDS011;59274;49.874;9.154;2023-01-13T10:39:09;2.38;;;0.47;;
71464;SDS011;59274;49.874;9.154;2023-01-13T10:41:41;3.83;;;0.67;;
71464;SDS011;59274;49.874;9.154;2023-01-13T10:44:14;3.35;;;0.68;;
71464;SDS011;59274;49.874;9.154;2023-01-13T10:46:52;6.90;;;1.00;;
71464;SDS011;59274;49.874;9.154;2023-01-13T10:49:26;3.33;;;0.70;;
71464;SDS011;59274;49.874;9.154;2023-01-13T10:51:52;5.18;;;0.73;;
71464;SDS011;59274;49.874;9.154;2023-01-13T10:54:19;1.50;;;0.40;;
71464;SDS011;59274;49.874;9.154;2023-01-13T10:56:49;2.63;;;0.60;;
71464;SDS011;59274;49.874;9.154;2023-01-13T10:59:39;2.90;;;0.60;;
71464;SDS011;59274;49.874;9.154;2023-01-13T11:04:32;4.20;;;0.90;;
71464;SDS011;59274;49.874;9.154;2023-01-13T11:15:35;5.38;;;0.80;;
71464;SDS011;59274;49.874;9.154;2023-01-13T11:18:08;3.17;;;0.73;;
71464;SDS011;59274;49.874;9.154;2023-01-13T11:20:57;13.68;;;3.40;;
71464;SDS011;59274;49.874;9.154;2023-01-13T11:23:31;9.23;;;3.17;;
71464;SDS011;59274;49.874;9.154;2023-01-13T11:26:03;6.85;;;1.80;;
71464;SDS011;59274;49.874;9.154;2023-01-13T11:33:58;2.38;;;0.60;;
71464;SDS011;59274;49.874;9.154;2023-01-13T11:36:39;5.80;;;1.00;;
71464;SDS011;59274;49.874;9.154;2023-01-13T11:39:29;5.78;;;1.02;;
71464;SDS011;59274;49.874;9.154;2023-01-13T11:42:16;2.65;;;0.88;;
71464;SDS011;59274;49.874;9.154;2023-01-13T11:47:40;7.45;;;2.00;;
71464;SDS011;59274;49.874;9.154;2023-01-13T11:50:31;6.37;;;0.90;;
71464;SDS011;59274;49.874;9.154;2023-01-13T11:55:54;8.45;;;1.50;;
71464;SDS011;59274;49.874;9.154;2023-01-13T12:01:32;6.15;;;1.00;;
71464;SDS011;59274;49.874;9.154;2023-01-13T12:06:40;5.95;;;1.15;;
71464;SDS011;59274;49.874;9.154;2023-01-13T12:19:53;4.25;;;1.05;;
71464;SDS011;59274;49.874;9.154;2023-01-13T12:22:20;4.20;;;0.77;;
71464;SDS011;59274;49.874;9.154;2023-01-13T12:30:22;9.30;;;1.15;;
71464;SDS011;59274;49.874;9.154;2023-01-13T12:32:53;5.35;;;0.93;;
71464;SDS011;59274;49.874;9.154;2023-01-13T12:35:38;6.78;;;1.42;;
71464;SDS011;59274;49.874;9.154;2023-01-13T12:41:08;5.28;;;1.00;;
71464;SDS011;59274;49.874;9.154;2023-01-13T12:43:36;10.10;;;1.35;;
71464;SDS011;59274;49.874;9.154;2023-01-13T12:54:30;6.53;;;1.00;;
71464;SDS011;59274;49.874;9.154;2023-01-13T13:02:40;4.70;;;0.80;;
71464;SDS011;59274;49.874;9.154;2023-01-13T13:07:40;7.70;;;0.85;;
71464;SDS011;59274;49.874;9.154;2023-01-13T13:10:14;6.72;;;1.20;;
71464;SDS011;59274;49.874;9.154;2023-01-13T13:26:14;5.18;;;1.10;;
71464;SDS011;59274;49.874;9.154;2023-01-13T13:28:43;3.97;;;0.70;;
71464;SDS011;59274;49.874;9.154;2023-01-13T13:31:18;5.35;;;0.90;;
71464;SDS011;59274;49.874;9.154;2023-01-13T13:39:23;8.35;;;1.45;;
71464;SDS011;59274;49.874;9.154;2023-01-13T13:42:12;7.18;;;0.90;;
71464;SDS011;59274;49.874;9.154;2023-01-13T13:44:58;7.90;;;1.25;;
71464;SDS011;59274;49.874;9.154;2023-01-13T13:47:44;4.53;;;1.10;;
71464;SDS011;59274;49.874;9.154;2023-01-13T13:50:14;5.22;;;0.93;;
71464;SDS011;59274;49.874;9.154;2023-01-13T13:52:44;5.80;;;0.87;;
71464;SDS011;59274;49.874;9.154;2023-01-13T13:55:19;4.80;;;1.13;;
71464;SDS011;59274;49.874;9.154;2023-01-13T13:57:48;5.00;;;0.90;;
71464;SDS011;59274;49.874;9.154;2023-01-13T14:00:20;5.38;;;1.10;;
71464;SDS011;59274;49.874;9.154;2023-01-13T14:02:50;8.65;;;1.20;;
71464;SDS011;59274;49.874;9.154;2023-01-13T14:05:28;9.70;;;1.07;;
71464;SDS011;59274;49.874;9.154;2023-01-13T14:07:59;7.10;;;1.00;;
71464;SDS011;59274;49.874;9.154;2023-01-13T14:10:30;7.18;;;1.08;;
71464;SDS011;59274;49.874;9.154;2023-01-13T14:12:58;7.93;;;1.10;;
71464;SDS011;59274;49.874;9.154;2023-01-13T14:15:29;4.75;;;0.85;;
71464;SDS011;59274;49.874;9.154;2023-01-13T14:18:00;5.73;;;0.80;;
71464;SDS011;59274;49.874;9.154;2023-01-13T14:20:28;8.40;;;1.30;;
71464;SDS011;59274;49.874;9.154;2023-01-13T14:22:53;8.50;;;1.20;;
71464;SDS011;59274;49.874;9.154;2023-01-13T14:25:28;6.93;;;1.20;;
71464;SDS011;59274;49.874;9.154;2023-01-13T14:27:58;7.53;;;1.40;;
71464;SDS011;59274;49.874;9.154;2023-01-13T14:30:29;5.72;;;1.10;;
71464;SDS011;59274;49.874;9.154;2023-01-13T14:32:56;6.25;;;1.10;;
71464;SDS011;59274;49.874;9.154;2023-01-13T14:35:23;6.50;;;1.10;;
71464;SDS011;59274;49.874;9.154;2023-01-13T14:37:48;5.33;;;1.00;;
71464;SDS011;59274;49.874;9.154;2023-01-13T14:43:15;7.70;;;1.27;;
71464;SDS011;59274;49.874;9.154;2023-01-13T14:45:54;8.00;;;1.20;;
71464;SDS011;59274;49.874;9.154;2023-01-13T14:48:22;6.75;;;1.20;;
71464;SDS011;59274;49.874;9.154;2023-01-13T14:50:57;5.93;;;0.88;;
71464;SDS011;59274;49.874;9.154;2023-01-13T14:59:30;5.90;;;1.07;;
71464;SDS011;59274;49.874;9.154;2023-01-13T15:04:55;6.88;;;1.10;;
71464;SDS011;59274;49.874;9.154;2023-01-13T15:07:26;6.53;;;0.80;;
71464;SDS011;59274;49.874;9.154;2023-01-13T15:09:54;5.20;;;1.08;;
71464;SDS011;59274;49.874;9.154;2023-01-13T15:12:23;5.60;;;1.10;;
71464;SDS011;59274;49.874;9.154;2023-01-13T15:14:59;7.53;;;1.50;;
71464;SDS011;59274;49.874;9.154;2023-01-13T15:17:27;3.65;;;1.23;;
71464;SDS011;59274;49.874;9.154;2023-01-13T15:19:52;5.17;;;0.90;;
71464;SDS011;59274;49.874;9.154;2023-01-13T15:22:19;8.48;;;1.25;;
71464;SDS011;59274;49.874;9.154;2023-01-13T15:24:45;6.90;;;1.30;;
71464;SDS011;59274;49.874;9.154;2023-01-13T15:27:19;8.02;;;1.38;;
71464;SDS011;59274;49.874;9.154;2023-01-13T15:29:49;6.05;;;1.00;;
71464;SDS011;59274;49.874;9.154;2023-01-13T15:32:18;6.93;;;1.10;;
71464;SDS011;59274;49.874;9.154;2023-01-13T15:34:44;4.70;;;1.10;;
71464;SDS011;59274;49.874;9.154;2023-01-13T15:37:11;10.40;;;1.07;;
71464;SDS011;59274;49.874;9.154;2023-01-13T15:39:37;4.50;;;0.80;;
71464;SDS011;59274;49.874;9.154;2023-01-13T15:42:03;6.50;;;1.17;;
71464;SDS011;59274;49.874;9.154;2023-01-13T15:44:47;7.40;;;1.13;;
71464;SDS011;59274;49.874;9.154;2023-01-13T15:47:31;4.78;;;0.60;;
71464;SDS011;59274;49.874;9.154;2023-01-13T15:49:56;7.28;;;1.00;;
71464;SDS011;59274;49.874;9.154;2023-01-13T15:52:22;6.25;;;1.02;;
71464;SDS011;59274;49.874;9.154;2023-01-13T15:54:50;7.40;;;1.20;;
71464;SDS011;59274;49.874;9.154;2023-01-13T15:57:29;7.90;;;1.33;;
71464;SDS011;59274;49.874;9.154;2023-01-13T16:00:03;4.45;;;0.80;;
71464;SDS011;59274;49.874;9.154;2023-01-13T16:02:37;7.97;;;1.20;;
71464;SDS011;59274;49.874;9.154;2023-01-13T16:05:03;6.93;;;1.20;;
71464;SDS011;59274;49.874;9.154;2023-01-13T16:07:29;4.60;;;1.20;;
71464;SDS011;59274;49.874;9.154;2023-01-13T16:09:54;5.73;;;1.40;;
71464;SDS011;59274;49.874;9.154;2023-01-13T16:12:20;6.87;;;2.10;;
71464;SDS011;59274;49.874;9.154;2023-01-13T16:14:45;5.47;;;1.17;;
71464;SDS011;59274;49.874;9.154;2023-01-13T16:17:18;7.87;;;2.30;;
71464;SDS011;59274;49.874;9.154;2023-01-13T16:19:45;5.38;;;1.23;;
71464;SDS011;59274;49.874;9.154;2023-01-13T16:22:11;5.97;;;1.00;;
71464;SDS011;59274;49.874;9.154;2023-01-13T16:24:37;5.53;;;0.90;;
71464;SDS011;59274;49.874;9.154;2023-01-13T16:27:22;6.88;;;1.00;;
71464;SDS011;59274;49.874;9.154;2023-01-13T16:29:49;4.78;;;0.90;;
71464;SDS011;59274;49.874;9.154;2023-01-13T16:32:16;6.25;;;1.65;;
71464;SDS011;59274;49.874;9.154;2023-01-13T16:34:43;4.57;;;1.00;;
71464;SDS011;59274;49.874;9.154;2023-01-13T16:37:11;5.73;;;1.27;;
71464;SDS011;59274;49.874;9.154;2023-01-13T16:39:43;7.72;;;1.48;;
71464;SDS011;59274;49.874;9.154;2023-01-13T16:42:08;8.20;;;1.30;;
71464;SDS011;59274;49.874;9.154;2023-01-13T16:44:34;10.10;;;1.43;;
71464;SDS011;59274;49.874;9.154;2023-01-13T16:46:59;6.43;;;1.20;;
71464;SDS011;59274;49.874;9.154;2023-01-13T16:49:25;6.82;;;1.20;;
71464;SDS011;59274;49.874;9.154;2023-01-13T16:51:50;7.45;;;0.95;;
71464;SDS011;59274;49.874;9.154;2023-01-13T16:54:15;11.20;;;1.50;;
71464;SDS011;59274;49.874;9.154;2023-01-13T16:56:41;7.53;;;1.17;;
71464;SDS011;59274;49.874;9.154;2023-01-13T16:59:10;10.57;;;1.47;;
71464;SDS011;59274;49.874;9.154;2023-01-13T17:01:41;7.47;;;1.30;;
71464;SDS011;59274;49.874;9.154;2023-01-13T17:04:19;7.78;;;1.02;;
71464;SDS011;59274;49.874;9.154;2023-01-13T17:07:19;9.88;;;1.30;;
71464;SDS011;59274;49.874;9.154;2023-01-13T17:09:40;3.40;;;1.10;;
71464;SDS011;59274;49.874;9.154;2023-01-13T17:12:05;7.07;;;1.27;;
71464;SDS011;59274;49.874;9.154;2023-01-13T17:14:32;6.68;;;1.20;;
71464;SDS011;59274;49.874;9.154;2023-01-13T17:16:57;7.97;;;1.27;;
71464;SDS011;59274;49.874;9.154;2023-01-13T17:19:23;7.60;;;1.00;;
71464;SDS011;59274;49.874;9.154;2023-01-13T17:21:49;8.18;;;0.90;;
71464;SDS011;59274;49.874;9.154;2023-01-13T17:24:15;8.53;;;1.17;;
71464;SDS011;59274;49.874;9.154;2023-01-13T17:26:44;5.70;;;1.10;;